createdAt,value
2022-10-06T00:02:34.000Z,15.01
2022-10-06T00:07:35.000Z,15.94
2022-10-06T00:12:34.000Z,15.94
2022-10-06T00:17:35.000Z,12.66
2022-10-06T00:22:34.000Z,8.46
2022-10-06T00:27:35.000Z,7.14
2022-10-06T00:32:34.000Z,6.35
2022-10-06T00:37:35.000Z,5.56
2022-10-06T00:42:34.000Z,4.84
2022-10-06T00:47:34.000Z,5.13
2022-10-06T00:52:34.000Z,4.64
2022-10-06T00:57:34.000Z,5.08
2022-10-06T01:02:35.000Z,4.93
2022-10-06T01:07:35.000Z,4.86
2022-10-06T01:12:35.000Z,4.97
2022-10-06T01:17:35.000Z,5.62
2022-10-06T01:22:35.000Z,6.33
2022-10-06T01:27:34.000Z,6.33
2022-10-06T01:32:35.000Z,5.59
2022-10-06T01:37:35.000Z,5.1
2022-10-06T01:42:35.000Z,5.42
2022-10-06T01:47:34.000Z,4.51
2022-10-06T01:52:35.000Z,5.22
2022-10-06T01:57:34.000Z,4.43
2022-10-06T02:02:35.000Z,4.9
2022-10-06T02:07:34.000Z,4.73
2022-10-06T02:12:35.000Z,5.22
2022-10-06T02:17:35.000Z,5.16
2022-10-06T02:22:35.000Z,5.54
2022-10-06T02:27:35.000Z,6.56
2022-10-06T02:32:35.000Z,6.51
2022-10-06T02:37:34.000Z,6.24
2022-10-06T02:42:35.000Z,6.24
2022-10-06T02:47:35.000Z,6.54
2022-10-06T02:52:34.000Z,6.21
2022-10-06T02:57:35.000Z,5.64
2022-10-06T03:02:34.000Z,6.55
2022-10-06T03:07:35.000Z,6.31
2022-10-06T03:17:35.000Z,6.36
2022-10-06T03:22:35.000Z,6.6
2022-10-06T03:27:35.000Z,7.19
2022-10-06T03:32:35.000Z,7.19
2022-10-06T03:37:35.000Z,7.67
2022-10-06T03:42:35.000Z,7.53
2022-10-06T03:47:34.000Z,7.79
2022-10-06T03:52:36.000Z,8.1
2022-10-06T03:57:34.000Z,8.62
2022-10-06T04:02:35.000Z,8.01
2022-10-06T04:07:34.000Z,7.97
2022-10-06T04:12:34.000Z,8.71
2022-10-06T04:17:35.000Z,8.86
2022-10-06T04:22:35.000Z,9.56
2022-10-06T04:27:34.000Z,11.84
2022-10-06T04:32:35.000Z,13.16
2022-10-06T04:37:35.000Z,13.39
2022-10-06T04:42:34.000Z,13.05
2022-10-06T04:47:35.000Z,13.05
2022-10-06T04:52:34.000Z,11.5
2022-10-06T04:57:35.000Z,11.45
2022-10-06T05:02:35.000Z,10.6
2022-10-06T05:07:34.000Z,11.22
2022-10-06T05:12:34.000Z,10.96
2022-10-06T05:17:35.000Z,12.22
2022-10-06T05:22:35.000Z,11.45
2022-10-06T05:27:35.000Z,10.93
2022-10-06T05:32:34.000Z,10.41
2022-10-06T05:37:34.000Z,10.56
2022-10-06T05:42:39.000Z,10.51
2022-10-06T05:47:34.000Z,10.3
2022-10-06T05:52:34.000Z,10.22
2022-10-06T05:57:35.000Z,12.02
2022-10-06T06:02:34.000Z,12.02
2022-10-06T06:07:35.000Z,11.27
2022-10-06T06:12:35.000Z,13.43
2022-10-06T06:17:34.000Z,9.95
2022-10-06T06:22:34.000Z,10.68
2022-10-06T06:27:35.000Z,11.08
2022-10-06T06:32:35.000Z,11.41
2022-10-06T06:37:34.000Z,12.03
2022-10-06T06:42:34.000Z,11.72
2022-10-06T06:47:36.000Z,13.22
2022-10-06T06:52:34.000Z,14.3
2022-10-06T06:57:34.000Z,15.54
2022-10-06T07:02:35.000Z,19.01
2022-10-06T07:07:35.000Z,16.8
2022-10-06T07:12:35.000Z,15.22
2022-10-06T07:17:35.000Z,15.22
2022-10-06T07:22:35.000Z,14.92
2022-10-06T07:27:35.000Z,14.1
2022-10-06T07:32:34.000Z,13.25
2022-10-06T07:37:35.000Z,12.74
2022-10-06T07:42:34.000Z,13.75
2022-10-06T07:47:35.000Z,13.57
2022-10-06T07:52:34.000Z,15.27
2022-10-06T07:57:34.000Z,15.07
2022-10-06T08:02:35.000Z,14.54
2022-10-06T08:07:35.000Z,13.16
2022-10-06T08:17:34.000Z,14.85
2022-10-06T08:22:35.000Z,18.52
2022-10-06T08:27:34.000Z,18.22
2022-10-06T08:32:35.000Z,18.91
2022-10-06T08:37:35.000Z,18.91
2022-10-06T08:42:35.000Z,20.29
2022-10-06T08:47:34.000Z,18.35
2022-10-06T08:52:34.000Z,17.86
2022-10-06T08:57:35.000Z,17.83
2022-10-06T09:02:35.000Z,17.74
2022-10-06T09:07:35.000Z,17.01
2022-10-06T09:12:34.000Z,17.16
2022-10-06T09:17:35.000Z,16.42
2022-10-06T09:22:35.000Z,15.99
2022-10-06T09:27:35.000Z,16.23
2022-10-06T09:32:34.000Z,16.56
2022-10-06T09:37:35.000Z,15.2
2022-10-06T09:42:34.000Z,15.42
2022-10-06T09:47:35.000Z,17.88
2022-10-06T09:52:34.000Z,17.88
2022-10-06T09:57:34.000Z,18.73
2022-10-06T10:02:35.000Z,17.1
2022-10-06T10:07:34.000Z,16.9
2022-10-06T10:12:35.000Z,15.14
2022-10-06T10:17:34.000Z,13.27
2022-10-06T10:22:35.000Z,12.52
2022-10-06T10:27:35.000Z,12.77
2022-10-06T10:32:35.000Z,11.82
2022-10-06T10:37:35.000Z,11.83
2022-10-06T10:42:34.000Z,12.38
2022-10-06T10:47:35.000Z,11.47
2022-10-06T10:52:35.000Z,12.34
2022-10-06T10:57:35.000Z,12.72
2022-10-06T11:02:35.000Z,12.57
2022-10-06T11:07:35.000Z,12.57
2022-10-06T11:12:34.000Z,12.63
2022-10-06T11:17:35.000Z,11.06
2022-10-06T11:22:35.000Z,11.78
2022-10-06T11:27:35.000Z,12.24
2022-10-06T11:32:35.000Z,12.46
2022-10-06T11:37:34.000Z,12.86
2022-10-06T11:42:35.000Z,14.51
2022-10-06T11:47:46.000Z,16.15
2022-10-06T11:52:35.000Z,16.61
2022-10-06T11:57:40.000Z,17.11
2022-10-06T12:02:35.000Z,15.83
2022-10-06T12:07:35.000Z,15.45
2022-10-06T12:12:35.000Z,14.68
2022-10-06T12:17:35.000Z,15.42
2022-10-06T12:22:35.000Z,15.42
2022-10-06T12:27:36.000Z,14.31
2022-10-06T12:32:34.000Z,13.42
2022-10-06T12:37:35.000Z,13.46
2022-10-06T12:42:35.000Z,13.08
2022-10-06T12:47:35.000Z,14.38
2022-10-06T12:52:35.000Z,14.59
2022-10-06T12:57:35.000Z,15.01
2022-10-06T13:02:35.000Z,14.15
2022-10-06T13:12:34.000Z,13.67
2022-10-06T13:17:35.000Z,13.46
2022-10-06T13:22:34.000Z,13.55
2022-10-06T13:27:35.000Z,14.82
2022-10-06T13:37:35.000Z,15.05
2022-10-06T13:42:35.000Z,15.08
2022-10-06T13:52:35.000Z,15.46
2022-10-06T13:57:35.000Z,15.9
2022-10-06T14:02:35.000Z,15.36
2022-10-06T14:07:34.000Z,19.44
2022-10-06T14:12:34.000Z,17.86
2022-10-06T14:17:35.000Z,14.99
2022-10-06T14:22:35.000Z,16
2022-10-06T14:27:35.000Z,17.14
2022-10-06T14:32:35.000Z,17.61
2022-10-06T14:37:35.000Z,17.79
2022-10-06T14:42:35.000Z,17.79
2022-10-06T14:47:34.000Z,16.23
2022-10-06T14:52:35.000Z,15.55
2022-10-06T14:57:35.000Z,13.56
2022-10-06T15:02:35.000Z,14.75
2022-10-06T15:07:35.000Z,14.32
2022-10-06T15:12:35.000Z,14.15
2022-10-06T15:17:35.000Z,15.44
2022-10-06T15:22:34.000Z,13.65
2022-10-06T15:27:35.000Z,14.57
2022-10-06T15:32:35.000Z,14.92
2022-10-06T15:37:35.000Z,16.06
2022-10-06T15:42:34.000Z,17.68
2022-10-06T15:47:35.000Z,16.21
2022-10-06T15:52:34.000Z,14
2022-10-06T15:57:35.000Z,14
2022-10-06T16:02:34.000Z,15.59
2022-10-06T16:07:35.000Z,15.27
2022-10-06T16:12:35.000Z,15.2
2022-10-06T16:17:34.000Z,16.92
2022-10-06T16:22:35.000Z,17.18
2022-10-06T16:27:41.000Z,17.29
2022-10-06T16:32:34.000Z,18.21
2022-10-06T16:37:35.000Z,18.8
2022-10-06T16:42:34.000Z,18.72
2022-10-06T16:47:34.000Z,20.42
2022-10-06T16:52:35.000Z,19.27
2022-10-06T16:57:34.000Z,19.82
2022-10-06T17:02:34.000Z,19.13
2022-10-06T17:07:35.000Z,19.62
2022-10-06T17:12:34.000Z,19.62
2022-10-06T17:17:35.000Z,20.25
2022-10-06T17:22:35.000Z,20.44
2022-10-06T17:27:35.000Z,21.02
2022-10-06T17:32:35.000Z,21.06
2022-10-06T17:37:34.000Z,20.98
2022-10-06T17:42:35.000Z,20.7
2022-10-06T17:47:35.000Z,21.89
2022-10-06T17:52:34.000Z,21.76
2022-10-06T17:57:35.000Z,20.69
2022-10-06T18:02:34.000Z,21.06
2022-10-06T18:07:35.000Z,20.2
2022-10-06T18:12:35.000Z,20.01
2022-10-06T18:17:35.000Z,19.61
2022-10-06T18:22:34.000Z,20.81
2022-10-06T18:27:35.000Z,20.81
2022-10-06T18:35:40.000Z,20.75
2022-10-06T18:42:35.000Z,20.59
2022-10-06T18:47:34.000Z,19.51
2022-10-06T18:52:34.000Z,18.92
2022-10-06T18:57:38.000Z,19.2
2022-10-06T19:02:35.000Z,19.19
2022-10-06T19:07:35.000Z,20.5
2022-10-06T19:12:35.000Z,18.8
2022-10-06T19:17:35.000Z,20.28
2022-10-06T19:22:34.000Z,20.07
2022-10-06T19:27:34.000Z,21.25
2022-10-06T19:32:35.000Z,20.88
2022-10-06T19:37:34.000Z,21.8
2022-10-06T19:42:35.000Z,21.8
2022-10-06T19:47:34.000Z,22.29
2022-10-06T19:52:35.000Z,24.88
2022-10-06T19:57:35.000Z,25.23
2022-10-06T20:02:35.000Z,26.21
2022-10-06T20:07:35.000Z,26.6
2022-10-06T20:12:35.000Z,27.73
2022-10-06T20:17:35.000Z,26.77
2022-10-06T20:22:34.000Z,25.71
2022-10-06T20:27:35.000Z,26.23
2022-10-06T20:32:35.000Z,22.8
2022-10-06T20:37:35.000Z,22.15
2022-10-06T20:42:35.000Z,23.06
2022-10-06T20:47:34.000Z,22.3
2022-10-06T20:52:34.000Z,22.3
2022-10-06T20:57:40.000Z,23.26
2022-10-06T21:02:35.000Z,23.41
2022-10-06T21:07:35.000Z,23.18
2022-10-06T21:12:35.000Z,22.78
2022-10-06T21:17:34.000Z,22.61
2022-10-06T21:27:35.000Z,22.92
2022-10-06T21:32:35.000Z,24.03
2022-10-06T21:37:35.000Z,22.92
2022-10-06T21:42:35.000Z,22.55
2022-10-06T21:47:35.000Z,22.55
2022-10-06T21:52:35.000Z,22.75
2022-10-06T21:57:35.000Z,21.35
2022-10-06T22:02:35.000Z,22.36
2022-10-06T22:07:34.000Z,22.01
2022-10-06T22:12:35.000Z,22.22
2022-10-06T22:17:34.000Z,21.57
2022-10-06T22:22:35.000Z,20.2
2022-10-06T22:27:34.000Z,19.32
2022-10-06T22:32:35.000Z,19.23
2022-10-06T22:37:34.000Z,18.47
2022-10-06T22:42:34.000Z,19.54
2022-10-06T22:47:35.000Z,17.88
2022-10-06T22:52:35.000Z,18.18
2022-10-06T22:57:35.000Z,17.39
2022-10-06T23:02:34.000Z,17.39
2022-10-06T23:07:35.000Z,15.84
2022-10-06T23:12:35.000Z,14.74
2022-10-06T23:17:35.000Z,14.95
2022-10-06T23:22:35.000Z,15.43
2022-10-06T23:27:35.000Z,14.96
2022-10-06T23:32:35.000Z,15.42
2022-10-06T23:37:34.000Z,15.45
2022-10-06T23:42:35.000Z,14.51
2022-10-06T23:47:35.000Z,14.39
2022-10-06T23:52:34.000Z,13.42
2022-10-06T23:57:35.000Z,14.1
